sensor_id;sensor_type;location;lat;lon;timestamp;P1;durP1;ratioP1;P2;durP2;ratioP2
22814;SDS011;11574;51.058;13.712;2022-07-23T00:02:47;4.13;;;2.70;;
22814;SDS011;11574;51.058;13.712;2022-07-23T00:07:51;7.63;;;3.13;;
22814;SDS011;11574;51.058;13.712;2022-07-23T00:12:55;4.03;;;2.40;;
22814;SDS011;11574;51.058;13.712;2022-07-23T00:17:58;3.83;;;2.60;;
22814;SDS011;11574;51.058;13.712;2022-07-23T00:23:01;3.47;;;2.67;;
22814;SDS011;11574;51.058;13.712;2022-07-23T00:28:03;4.33;;;2.90;;
22814;SDS011;11574;51.058;13.712;2022-07-23T00:33:06;3.30;;;3.00;;
22814;SDS011;11574;51.058;13.712;2022-07-23T00:38:12;5.80;;;2.87;;
22814;SDS011;11574;51.058;13.712;2022-07-23T00:43:14;3.37;;;3.07;;
22814;SDS011;11574;51.058;13.712;2022-07-23T00:48:17;3.97;;;3.00;;
22814;SDS011;11574;51.058;13.712;2022-07-23T00:53:20;3.63;;;2.87;;
22814;SDS011;11574;51.058;13.712;2022-07-23T00:58:23;4.50;;;2.90;;
22814;SDS011;11574;51.058;13.712;2022-07-23T01:03:25;5.20;;;2.63;;
22814;SDS011;11574;51.058;13.712;2022-07-23T01:08:29;6.10;;;3.17;;
22814;SDS011;11574;51.058;13.712;2022-07-23T01:13:31;4.23;;;3.10;;
22814;SDS011;11574;51.058;13.712;2022-07-23T01:18:34;8.07;;;2.90;;
22814;SDS011;11574;51.058;13.712;2022-07-23T01:23:37;3.10;;;2.80;;
22814;SDS011;11574;51.058;13.712;2022-07-23T01:28:39;4.90;;;3.00;;
22814;SDS011;11574;51.058;13.712;2022-07-23T01:33:42;5.33;;;3.47;;
22814;SDS011;11574;51.058;13.712;2022-07-23T01:38:45;4.87;;;2.97;;
22814;SDS011;11574;51.058;13.712;2022-07-23T01:43:48;5.80;;;3.53;;
22814;SDS011;11574;51.058;13.712;2022-07-23T01:48:50;4.13;;;3.00;;
22814;SDS011;11574;51.058;13.712;2022-07-23T01:53:53;3.70;;;3.20;;
22814;SDS011;11574;51.058;13.712;2022-07-23T01:58:55;4.87;;;3.70;;
22814;SDS011;11574;51.058;13.712;2022-07-23T02:03:58;3.77;;;3.47;;
22814;SDS011;11574;51.058;13.712;2022-07-23T02:09:01;3.57;;;2.87;;
22814;SDS011;11574;51.058;13.712;2022-07-23T02:14:03;3.40;;;3.10;;
22814;SDS011;11574;51.058;13.712;2022-07-23T02:19:05;4.17;;;3.77;;
22814;SDS011;11574;51.058;13.712;2022-07-23T02:24:09;4.20;;;3.30;;
22814;SDS011;11574;51.058;13.712;2022-07-23T02:29:11;3.70;;;3.10;;
22814;SDS011;11574;51.058;13.712;2022-07-23T02:34:14;4.63;;;3.72;;
22814;SDS011;11574;51.058;13.712;2022-07-23T02:39:18;5.40;;;3.95;;
22814;SDS011;11574;51.058;13.712;2022-07-23T02:44:20;11.30;;;3.57;;
22814;SDS011;11574;51.058;13.712;2022-07-23T02:49:22;3.50;;;3.20;;
22814;SDS011;11574;51.058;13.712;2022-07-23T02:54:26;4.50;;;3.63;;
22814;SDS011;11574;51.058;13.712;2022-07-23T02:59:28;7.77;;;3.60;;
22814;SDS011;11574;51.058;13.712;2022-07-23T03:04:30;5.00;;;3.43;;
22814;SDS011;11574;51.058;13.712;2022-07-23T03:09:33;3.60;;;3.07;;
22814;SDS011;11574;51.058;13.712;2022-07-23T03:14:36;3.73;;;3.27;;
22814;SDS011;11574;51.058;13.712;2022-07-23T03:19:38;4.53;;;3.83;;
22814;SDS011;11574;51.058;13.712;2022-07-23T03:24:42;5.00;;;4.43;;
22814;SDS011;11574;51.058;13.712;2022-07-23T03:29:57;5.70;;;4.03;;
22814;SDS011;11574;51.058;13.712;2022-07-23T03:34:59;4.00;;;3.60;;
22814;SDS011;11574;51.058;13.712;2022-07-23T03:40:03;3.77;;;3.43;;
22814;SDS011;11574;51.058;13.712;2022-07-23T03:45:06;5.30;;;3.97;;
22814;SDS011;11574;51.058;13.712;2022-07-23T03:50:08;4.90;;;4.40;;
22814;SDS011;11574;51.058;13.712;2022-07-23T03:55:12;4.47;;;3.77;;
22814;SDS011;11574;51.058;13.712;2022-07-23T04:00:14;5.37;;;3.60;;
22814;SDS011;11574;51.058;13.712;2022-07-23T04:05:16;4.63;;;3.60;;
22814;SDS011;11574;51.058;13.712;2022-07-23T04:10:20;4.43;;;3.70;;
22814;SDS011;11574;51.058;13.712;2022-07-23T04:15:22;4.60;;;4.10;;
22814;SDS011;11574;51.058;13.712;2022-07-23T04:20:24;5.17;;;4.60;;
22814;SDS011;11574;51.058;13.712;2022-07-23T04:25:28;4.30;;;3.37;;
22814;SDS011;11574;51.058;13.712;2022-07-23T04:30:30;7.67;;;3.57;;
22814;SDS011;11574;51.058;13.712;2022-07-23T04:35:32;5.23;;;3.40;;
22814;SDS011;11574;51.058;13.712;2022-07-23T04:40:36;4.40;;;3.50;;
22814;SDS011;11574;51.058;13.712;2022-07-23T04:45:38;5.53;;;3.30;;
22814;SDS011;11574;51.058;13.712;2022-07-23T04:50:40;4.63;;;3.63;;
22814;SDS011;11574;51.058;13.712;2022-07-23T04:55:45;4.57;;;3.67;;
22814;SDS011;11574;51.058;13.712;2022-07-23T05:00:47;3.83;;;3.10;;
22814;SDS011;11574;51.058;13.712;2022-07-23T05:05:49;4.10;;;3.20;;
22814;SDS011;11574;51.058;13.712;2022-07-23T05:10:53;3.70;;;3.37;;
22814;SDS011;11574;51.058;13.712;2022-07-23T05:15:55;5.03;;;3.33;;
22814;SDS011;11574;51.058;13.712;2022-07-23T05:20:57;4.37;;;3.10;;
22814;SDS011;11574;51.058;13.712;2022-07-23T05:26:00;8.07;;;3.57;;
22814;SDS011;11574;51.058;13.712;2022-07-23T05:31:03;5.50;;;3.33;;
22814;SDS011;11574;51.058;13.712;2022-07-23T05:36:05;5.30;;;3.43;;
22814;SDS011;11574;51.058;13.712;2022-07-23T05:41:11;24.83;;;13.00;;
22814;SDS011;11574;51.058;13.712;2022-07-23T05:46:13;8.13;;;4.07;;
22814;SDS011;11574;51.058;13.712;2022-07-23T05:51:18;5.07;;;3.80;;
22814;SDS011;11574;51.058;13.712;2022-07-23T05:56:22;6.33;;;4.40;;
22814;SDS011;11574;51.058;13.712;2022-07-23T06:01:24;5.97;;;4.33;;
22814;SDS011;11574;51.058;13.712;2022-07-23T06:06:26;5.00;;;4.00;;
22814;SDS011;11574;51.058;13.712;2022-07-23T06:11:30;8.07;;;4.80;;
22814;SDS011;11574;51.058;13.712;2022-07-23T06:16:32;7.23;;;5.47;;
22814;SDS011;11574;51.058;13.712;2022-07-23T06:21:34;7.37;;;5.63;;
22814;SDS011;11574;51.058;13.712;2022-07-23T06:26:38;9.77;;;5.60;;
22814;SDS011;11574;51.058;13.712;2022-07-23T06:31:40;9.20;;;5.53;;
22814;SDS011;11574;51.058;13.712;2022-07-23T06:36:42;6.97;;;5.80;;
22814;SDS011;11574;51.058;13.712;2022-07-23T06:41:46;6.67;;;5.10;;
22814;SDS011;11574;51.058;13.712;2022-07-23T06:46:48;9.10;;;5.73;;
22814;SDS011;11574;51.058;13.712;2022-07-23T06:51:50;7.97;;;5.60;;
22814;SDS011;11574;51.058;13.712;2022-07-23T06:56:53;11.60;;;5.27;;
22814;SDS011;11574;51.058;13.712;2022-07-23T07:01:55;9.30;;;5.87;;
22814;SDS011;11574;51.058;13.712;2022-07-23T07:06:58;9.27;;;5.40;;
22814;SDS011;11574;51.058;13.712;2022-07-23T07:12:02;9.73;;;5.93;;
22814;SDS011;11574;51.058;13.712;2022-07-23T07:17:04;7.80;;;5.32;;
22814;SDS011;11574;51.058;13.712;2022-07-23T07:22:06;7.72;;;4.90;;
22814;SDS011;11574;51.058;13.712;2022-07-23T07:27:10;7.00;;;4.55;;
22814;SDS011;11574;51.058;13.712;2022-07-23T07:32:12;7.20;;;5.20;;
22814;SDS011;11574;51.058;13.712;2022-07-23T07:37:14;8.47;;;4.90;;
22814;SDS011;11574;51.058;13.712;2022-07-23T07:42:18;7.68;;;4.55;;
22814;SDS011;11574;51.058;13.712;2022-07-23T07:47:20;5.10;;;4.60;;
22814;SDS011;11574;51.058;13.712;2022-07-23T07:52:22;7.57;;;4.80;;
22814;SDS011;11574;51.058;13.712;2022-07-23T07:57:25;6.03;;;4.45;;
22814;SDS011;11574;51.058;13.712;2022-07-23T08:02:28;5.53;;;4.18;;
22814;SDS011;11574;51.058;13.712;2022-07-23T08:07:30;7.97;;;4.55;;
22814;SDS011;11574;51.058;13.712;2022-07-23T08:12:43;4.47;;;3.90;;
22814;SDS011;11574;51.058;13.712;2022-07-23T08:17:46;5.78;;;4.20;;
22814;SDS011;11574;51.058;13.712;2022-07-23T08:22:49;5.78;;;4.20;;
22814;SDS011;11574;51.058;13.712;2022-07-23T08:27:53;7.10;;;4.10;;
22814;SDS011;11574;51.058;13.712;2022-07-23T08:32:56;5.32;;;3.97;;
22814;SDS011;11574;51.058;13.712;2022-07-23T08:38:01;5.57;;;3.78;;
22814;SDS011;11574;51.058;13.712;2022-07-23T08:43:05;7.50;;;3.70;;
22814;SDS011;11574;51.058;13.712;2022-07-23T08:48:08;5.18;;;4.13;;
22814;SDS011;11574;51.058;13.712;2022-07-23T08:53:13;5.30;;;3.53;;
22814;SDS011;11574;51.058;13.712;2022-07-23T08:58:17;8.95;;;4.13;;
22814;SDS011;11574;51.058;13.712;2022-07-23T09:03:20;7.75;;;4.25;;
22814;SDS011;11574;51.058;13.712;2022-07-23T09:08:24;6.15;;;4.07;;
22814;SDS011;11574;51.058;13.712;2022-07-23T09:13:32;4.68;;;3.78;;
22814;SDS011;11574;51.058;13.712;2022-07-23T09:18:35;6.72;;;3.97;;
22814;SDS011;11574;51.058;13.712;2022-07-23T09:23:40;5.22;;;4.03;;
22814;SDS011;11574;51.058;13.712;2022-07-23T09:28:48;4.10;;;3.67;;
22814;SDS011;11574;51.058;13.712;2022-07-23T09:33:51;4.88;;;4.00;;
22814;SDS011;11574;51.058;13.712;2022-07-23T09:38:54;6.53;;;4.15;;
22814;SDS011;11574;51.058;13.712;2022-07-23T09:43:57;4.80;;;3.80;;
22814;SDS011;11574;51.058;13.712;2022-07-23T09:49:09;9.75;;;4.40;;
22814;SDS011;11574;51.058;13.712;2022-07-23T09:54:23;5.15;;;4.30;;
22814;SDS011;11574;51.058;13.712;2022-07-23T09:59:29;6.10;;;4.10;;
22814;SDS011;11574;51.058;13.712;2022-07-23T10:04:33;4.43;;;3.97;;
22814;SDS011;11574;51.058;13.712;2022-07-23T10:09:36;6.05;;;4.30;;
22814;SDS011;11574;51.058;13.712;2022-07-23T10:14:40;6.80;;;4.60;;
22814;SDS011;11574;51.058;13.712;2022-07-23T10:19:42;6.15;;;4.70;;
22814;SDS011;11574;51.058;13.712;2022-07-23T10:24:50;15.35;;;4.80;;
22814;SDS011;11574;51.058;13.712;2022-07-23T10:29:58;7.80;;;4.47;;
22814;SDS011;11574;51.058;13.712;2022-07-23T10:35:07;5.15;;;3.85;;
22814;SDS011;11574;51.058;13.712;2022-07-23T10:40:11;7.05;;;4.82;;
22814;SDS011;11574;51.058;13.712;2022-07-23T10:50:35;7.47;;;4.13;;
22814;SDS011;11574;51.058;13.712;2022-07-23T10:55:41;8.50;;;4.70;;
22814;SDS011;11574;51.058;13.712;2022-07-23T11:00:44;8.00;;;4.68;;
22814;SDS011;11574;51.058;13.712;2022-07-23T11:05:47;5.43;;;4.50;;
22814;SDS011;11574;51.058;13.712;2022-07-23T11:10:54;7.15;;;4.60;;
22814;SDS011;11574;51.058;13.712;2022-07-23T11:26:46;6.75;;;4.25;;
22814;SDS011;11574;51.058;13.712;2022-07-23T11:31:51;8.45;;;4.22;;
22814;SDS011;11574;51.058;13.712;2022-07-23T11:36:53;5.03;;;4.03;;
22814;SDS011;11574;51.058;13.712;2022-07-23T11:42:00;6.75;;;4.35;;
22814;SDS011;11574;51.058;13.712;2022-07-23T11:47:05;4.95;;;3.47;;
22814;SDS011;11574;51.058;13.712;2022-07-23T11:52:08;7.63;;;4.22;;
22814;SDS011;11574;51.058;13.712;2022-07-23T11:57:12;6.35;;;4.80;;
22814;SDS011;11574;51.058;13.712;2022-07-23T12:02:14;7.38;;;4.80;;
22814;SDS011;11574;51.058;13.712;2022-07-23T12:07:27;5.85;;;4.65;;
22814;SDS011;11574;51.058;13.712;2022-07-23T12:12:35;6.80;;;4.68;;
22814;SDS011;11574;51.058;13.712;2022-07-23T12:17:38;5.95;;;4.20;;
22814;SDS011;11574;51.058;13.712;2022-07-23T12:22:42;7.87;;;5.43;;
22814;SDS011;11574;51.058;13.712;2022-07-23T12:27:46;6.47;;;5.10;;
22814;SDS011;11574;51.058;13.712;2022-07-23T12:32:48;9.60;;;4.87;;
22814;SDS011;11574;51.058;13.712;2022-07-23T12:37:51;6.40;;;5.30;;
22814;SDS011;11574;51.058;13.712;2022-07-23T12:42:57;7.05;;;4.90;;
22814;SDS011;11574;51.058;13.712;2022-07-23T12:48:00;9.50;;;4.97;;
22814;SDS011;11574;51.058;13.712;2022-07-23T12:53:04;6.85;;;4.72;;
22814;SDS011;11574;51.058;13.712;2022-07-23T12:58:12;10.13;;;4.43;;
22814;SDS011;11574;51.058;13.712;2022-07-23T13:03:25;6.00;;;4.93;;
22814;SDS011;11574;51.058;13.712;2022-07-23T13:08:29;7.97;;;4.60;;
22814;SDS011;11574;51.058;13.712;2022-07-23T13:13:33;6.65;;;4.90;;
22814;SDS011;11574;51.058;13.712;2022-07-23T13:18:36;8.15;;;5.18;;
22814;SDS011;11574;51.058;13.712;2022-07-23T13:23:38;7.22;;;6.00;;
22814;SDS011;11574;51.058;13.712;2022-07-23T13:28:42;5.50;;;4.43;;
22814;SDS011;11574;51.058;13.712;2022-07-23T13:33:44;7.18;;;5.20;;
22814;SDS011;11574;51.058;13.712;2022-07-23T13:38:46;11.93;;;6.53;;
22814;SDS011;11574;51.058;13.712;2022-07-23T13:43:50;8.38;;;5.32;;
22814;SDS011;11574;51.058;13.712;2022-07-23T13:48:52;8.50;;;5.72;;
22814;SDS011;11574;51.058;13.712;2022-07-23T13:53:54;7.07;;;5.38;;
22814;SDS011;11574;51.058;13.712;2022-07-23T13:59:00;10.07;;;5.22;;
22814;SDS011;11574;51.058;13.712;2022-07-23T14:04:02;8.13;;;5.25;;
22814;SDS011;11574;51.058;13.712;2022-07-23T14:09:05;8.95;;;5.50;;
22814;SDS011;11574;51.058;13.712;2022-07-23T14:14:08;6.53;;;5.25;;
22814;SDS011;11574;51.058;13.712;2022-07-23T14:19:10;8.43;;;5.03;;
22814;SDS011;11574;51.058;13.712;2022-07-23T14:24:13;6.30;;;5.25;;
22814;SDS011;11574;51.058;13.712;2022-07-23T14:29:16;5.30;;;4.80;;
22814;SDS011;11574;51.058;13.712;2022-07-23T14:34:18;5.72;;;4.60;;
22814;SDS011;11574;51.058;13.712;2022-07-23T14:39:20;6.53;;;5.25;;
22814;SDS011;11574;51.058;13.712;2022-07-23T14:44:24;6.65;;;5.10;;
22814;SDS011;11574;51.058;13.712;2022-07-23T14:49:26;6.10;;;5.15;;
22814;SDS011;11574;51.058;13.712;2022-07-23T14:54:29;5.78;;;5.07;;
22814;SDS011;11574;51.058;13.712;2022-07-23T14:59:32;8.82;;;5.45;;
22814;SDS011;11574;51.058;13.712;2022-07-23T15:04:35;8.07;;;5.90;;
22814;SDS011;11574;51.058;13.712;2022-07-23T15:09:37;6.78;;;5.18;;
22814;SDS011;11574;51.058;13.712;2022-07-23T15:14:41;8.50;;;5.43;;
22814;SDS011;11574;51.058;13.712;2022-07-23T15:19:43;6.70;;;5.82;;
22814;SDS011;11574;51.058;13.712;2022-07-23T15:24:45;10.23;;;6.25;;
22814;SDS011;11574;51.058;13.712;2022-07-23T15:29:48;8.55;;;6.30;;
22814;SDS011;11574;51.058;13.712;2022-07-23T15:34:51;7.40;;;6.68;;
22814;SDS011;11574;51.058;13.712;2022-07-23T15:39:53;12.02;;;7.63;;
22814;SDS011;11574;51.058;13.712;2022-07-23T15:44:56;11.43;;;7.63;;
22814;SDS011;11574;51.058;13.712;2022-07-23T15:49:58;10.68;;;8.13;;
22814;SDS011;11574;51.058;13.712;2022-07-23T15:55:01;11.55;;;8.52;;
22814;SDS011;11574;51.058;13.712;2022-07-23T16:00:05;14.10;;;8.48;;
22814;SDS011;11574;51.058;13.712;2022-07-23T16:05:09;8.05;;;6.55;;
22814;SDS011;11574;51.058;13.712;2022-07-23T16:10:29;12.45;;;8.43;;
22814;SDS011;11574;51.058;13.712;2022-07-23T16:15:32;10.38;;;7.13;;
22814;SDS011;11574;51.058;13.712;2022-07-23T16:20:35;9.02;;;7.25;;
22814;SDS011;11574;51.058;13.712;2022-07-23T16:25:37;11.50;;;7.95;;
22814;SDS011;11574;51.058;13.712;2022-07-23T16:30:40;12.20;;;7.57;;
22814;SDS011;11574;51.058;13.712;2022-07-23T16:35:43;9.70;;;8.07;;
22814;SDS011;11574;51.058;13.712;2022-07-23T16:40:46;10.30;;;8.15;;
22814;SDS011;11574;51.058;13.712;2022-07-23T16:45:49;11.63;;;7.97;;
22814;SDS011;11574;51.058;13.712;2022-07-23T16:50:52;15.57;;;8.85;;
22814;SDS011;11574;51.058;13.712;2022-07-23T16:55:54;12.10;;;8.15;;
22814;SDS011;11574;51.058;13.712;2022-07-23T17:00:58;9.88;;;8.00;;
22814;SDS011;11574;51.058;13.712;2022-07-23T17:06:00;12.25;;;8.15;;
22814;SDS011;11574;51.058;13.712;2022-07-23T17:11:02;13.10;;;7.80;;
22814;SDS011;11574;51.058;13.712;2022-07-23T17:16:06;13.10;;;9.02;;
22814;SDS011;11574;51.058;13.712;2022-07-23T17:21:09;9.95;;;7.85;;
22814;SDS011;11574;51.058;13.712;2022-07-23T17:26:11;12.32;;;8.65;;
22814;SDS011;11574;51.058;13.712;2022-07-23T17:31:15;9.20;;;7.20;;
22814;SDS011;11574;51.058;13.712;2022-07-23T17:36:17;10.20;;;6.30;;
22814;SDS011;11574;51.058;13.712;2022-07-23T17:41:21;12.57;;;7.18;;
22814;SDS011;11574;51.058;13.712;2022-07-23T17:46:25;8.88;;;6.65;;
22814;SDS011;11574;51.058;13.712;2022-07-23T17:51:27;10.52;;;8.10;;
22814;SDS011;11574;51.058;13.712;2022-07-23T17:56:30;8.30;;;6.43;;
22814;SDS011;11574;51.058;13.712;2022-07-23T18:01:33;11.13;;;6.40;;
22814;SDS011;11574;51.058;13.712;2022-07-23T18:06:38;10.53;;;6.63;;
22814;SDS011;11574;51.058;13.712;2022-07-23T18:11:41;9.45;;;6.15;;
22814;SDS011;11574;51.058;13.712;2022-07-23T18:16:44;8.07;;;5.87;;
22814;SDS011;11574;51.058;13.712;2022-07-23T18:21:47;10.33;;;6.17;;
22814;SDS011;11574;51.058;13.712;2022-07-23T18:26:49;7.20;;;6.17;;
22814;SDS011;11574;51.058;13.712;2022-07-23T18:31:52;9.57;;;7.03;;
22814;SDS011;11574;51.058;13.712;2022-07-23T18:36:54;9.50;;;6.43;;
22814;SDS011;11574;51.058;13.712;2022-07-23T18:41:57;9.87;;;6.60;;
22814;SDS011;11574;51.058;13.712;2022-07-23T18:47:00;10.50;;;6.40;;
22814;SDS011;11574;51.058;13.712;2022-07-23T18:52:03;9.13;;;6.10;;
22814;SDS011;11574;51.058;13.712;2022-07-23T18:57:05;8.27;;;6.10;;
22814;SDS011;11574;51.058;13.712;2022-07-23T19:02:09;9.03;;;6.50;;
22814;SDS011;11574;51.058;13.712;2022-07-23T19:07:11;9.03;;;5.53;;
22814;SDS011;11574;51.058;13.712;2022-07-23T19:12:13;8.83;;;6.17;;
22814;SDS011;11574;51.058;13.712;2022-07-23T19:17:16;11.23;;;7.50;;
22814;SDS011;11574;51.058;13.712;2022-07-23T19:22:18;10.37;;;7.43;;
22814;SDS011;11574;51.058;13.712;2022-07-23T19:27:21;13.47;;;9.03;;
22814;SDS011;11574;51.058;13.712;2022-07-23T19:32:24;12.43;;;7.63;;
22814;SDS011;11574;51.058;13.712;2022-07-23T19:37:31;9.13;;;6.27;;
22814;SDS011;11574;51.058;13.712;2022-07-23T19:42:34;6.90;;;5.37;;
22814;SDS011;11574;51.058;13.712;2022-07-23T19:47:38;10.23;;;8.07;;
22814;SDS011;11574;51.058;13.712;2022-07-23T19:52:43;11.87;;;7.53;;
22814;SDS011;11574;51.058;13.712;2022-07-23T19:57:47;8.87;;;6.00;;
22814;SDS011;11574;51.058;13.712;2022-07-23T20:02:51;8.43;;;6.27;;
22814;SDS011;11574;51.058;13.712;2022-07-23T20:07:55;8.33;;;6.83;;
22814;SDS011;11574;51.058;13.712;2022-07-23T20:12:57;14.60;;;7.00;;
22814;SDS011;11574;51.058;13.712;2022-07-23T20:18:00;12.10;;;7.17;;
22814;SDS011;11574;51.058;13.712;2022-07-23T20:23:03;16.17;;;7.63;;
22814;SDS011;11574;51.058;13.712;2022-07-23T20:28:05;12.20;;;7.33;;
22814;SDS011;11574;51.058;13.712;2022-07-23T20:33:08;10.90;;;8.07;;
22814;SDS011;11574;51.058;13.712;2022-07-23T20:38:10;10.70;;;8.47;;
22814;SDS011;11574;51.058;13.712;2022-07-23T20:43:12;13.87;;;10.27;;
22814;SDS011;11574;51.058;13.712;2022-07-23T20:48:16;9.20;;;7.30;;
22814;SDS011;11574;51.058;13.712;2022-07-23T20:53:18;9.93;;;7.67;;
22814;SDS011;11574;51.058;13.712;2022-07-23T20:58:21;10.60;;;8.97;;
22814;SDS011;11574;51.058;13.712;2022-07-23T21:03:24;8.93;;;8.03;;
22814;SDS011;11574;51.058;13.712;2022-07-23T21:08:26;10.30;;;8.67;;
22814;SDS011;11574;51.058;13.712;2022-07-23T21:13:29;12.93;;;9.67;;
22814;SDS011;11574;51.058;13.712;2022-07-23T21:18:32;10.70;;;9.63;;
22814;SDS011;11574;51.058;13.712;2022-07-23T21:23:34;12.43;;;9.03;;
22814;SDS011;11574;51.058;13.712;2022-07-23T21:28:37;17.57;;;12.50;;
22814;SDS011;11574;51.058;13.712;2022-07-23T21:33:41;10.27;;;8.87;;
22814;SDS011;11574;51.058;13.712;2022-07-23T21:38:44;9.70;;;8.67;;
22814;SDS011;11574;51.058;13.712;2022-07-23T21:43:46;11.63;;;8.07;;
22814;SDS011;11574;51.058;13.712;2022-07-23T21:48:50;14.80;;;10.37;;
22814;SDS011;11574;51.058;13.712;2022-07-23T21:53:52;12.53;;;9.20;;
22814;SDS011;11574;51.058;13.712;2022-07-23T21:58:54;11.83;;;8.53;;
22814;SDS011;11574;51.058;13.712;2022-07-23T22:03:58;12.77;;;9.97;;
22814;SDS011;11574;51.058;13.712;2022-07-23T22:09:00;11.03;;;9.60;;
22814;SDS011;11574;51.058;13.712;2022-07-23T22:14:04;11.47;;;9.67;;
22814;SDS011;11574;51.058;13.712;2022-07-23T22:19:09;13.27;;;8.83;;
22814;SDS011;11574;51.058;13.712;2022-07-23T22:24:11;12.90;;;8.03;;
22814;SDS011;11574;51.058;13.712;2022-07-23T22:29:13;10.57;;;8.07;;
22814;SDS011;11574;51.058;13.712;2022-07-23T22:34:17;13.03;;;7.30;;
22814;SDS011;11574;51.058;13.712;2022-07-23T22:39:19;12.77;;;7.23;;
22814;SDS011;11574;51.058;13.712;2022-07-23T22:44:22;13.13;;;6.83;;
22814;SDS011;11574;51.058;13.712;2022-07-23T22:49:25;7.70;;;6.70;;
22814;SDS011;11574;51.058;13.712;2022-07-23T22:54:27;6.88;;;6.05;;
22814;SDS011;11574;51.058;13.712;2022-07-23T22:59:30;7.83;;;6.50;;
22814;SDS011;11574;51.058;13.712;2022-07-23T23:04:34;11.17;;;7.17;;
22814;SDS011;11574;51.058;13.712;2022-07-23T23:09:36;9.97;;;7.50;;
22814;SDS011;11574;51.058;13.712;2022-07-23T23:14:40;11.97;;;8.30;;
22814;SDS011;11574;51.058;13.712;2022-07-23T23:19:44;10.73;;;7.73;;
22814;SDS011;11574;51.058;13.712;2022-07-23T23:24:46;9.30;;;6.77;;
22814;SDS011;11574;51.058;13.712;2022-07-23T23:29:48;10.03;;;6.60;;
22814;SDS011;11574;51.058;13.712;2022-07-23T23:34:52;8.57;;;6.07;;
22814;SDS011;11574;51.058;13.712;2022-07-23T23:39:54;8.10;;;5.97;;
22814;SDS011;11574;51.058;13.712;2022-07-23T23:44:56;8.97;;;6.17;;
22814;SDS011;11574;51.058;13.712;2022-07-23T23:50:00;7.37;;;5.63;;
22814;SDS011;11574;51.058;13.712;2022-07-23T23:55:02;7.17;;;5.90;;
